Terminal Aerodrome Forecast
Issued by NWS

Home | Current Version | Previous Version | Text Only | Print | Product List | Glossary On
Versions: 1 2 3 4 5 6 7 8 9 10 11 12 13
820
FTUS46 KLOX 111724
TAFSBP
TAF
KSBP 111724Z 1118/1218 00000KT P6SM SCT250
     FM112000 31012KT P6SM BKN250
     FM120300 VRB03KT P6SM BKN250=

USA.gov is the U.S. government's official web portal to all federal, state and local government web resources and services.